sensor_id;sensor_type;location;lat;lon;timestamp;temperature;humidity
9837;DHT22;4957;51.412;6.724;2024-03-25T00:01:16;8.00;99.90
9837;DHT22;4957;51.412;6.724;2024-03-25T00:03:41;8.00;99.90
9837;DHT22;4957;51.412;6.724;2024-03-25T00:06:07;8.00;99.90
9837;DHT22;4957;51.412;6.724;2024-03-25T00:08:33;8.00;99.90
9837;DHT22;4957;51.412;6.724;2024-03-25T00:10:58;8.00;99.90
9837;DHT22;4957;51.412;6.724;2024-03-25T00:13:24;8.00;99.90
9837;DHT22;4957;51.412;6.724;2024-03-25T00:15:50;8.00;99.90
9837;DHT22;4957;51.412;6.724;2024-03-25T00:18:16;7.90;99.90
9837;DHT22;4957;51.412;6.724;2024-03-25T00:20:41;8.00;99.90
9837;DHT22;4957;51.412;6.724;2024-03-25T00:23:07;8.00;99.90
9837;DHT22;4957;51.412;6.724;2024-03-25T00:25:33;8.00;99.90
9837;DHT22;4957;51.412;6.724;2024-03-25T00:27:59;7.90;99.90
9837;DHT22;4957;51.412;6.724;2024-03-25T00:30:24;7.90;99.90
9837;DHT22;4957;51.412;6.724;2024-03-25T00:32:50;7.90;99.90
9837;DHT22;4957;51.412;6.724;2024-03-25T00:35:16;7.80;99.90
9837;DHT22;4957;51.412;6.724;2024-03-25T00:37:43;7.80;99.90
9837;DHT22;4957;51.412;6.724;2024-03-25T00:40:10;7.80;99.90
9837;DHT22;4957;51.412;6.724;2024-03-25T00:42:37;7.80;99.90
9837;DHT22;4957;51.412;6.724;2024-03-25T00:45:04;7.80;99.90
9837;DHT22;4957;51.412;6.724;2024-03-25T00:47:33;7.80;99.90
9837;DHT22;4957;51.412;6.724;2024-03-25T00:49:59;7.80;99.90
9837;DHT22;4957;51.412;6.724;2024-03-25T00:52:25;7.70;99.90
9837;DHT22;4957;51.412;6.724;2024-03-25T00:54:51;7.70;99.90
9837;DHT22;4957;51.412;6.724;2024-03-25T00:57:16;7.70;99.90
9837;DHT22;4957;51.412;6.724;2024-03-25T00:59:43;7.60;99.90
9837;DHT22;4957;51.412;6.724;2024-03-25T01:02:09;7.60;99.90
9837;DHT22;4957;51.412;6.724;2024-03-25T01:04:36;7.60;99.90
9837;DHT22;4957;51.412;6.724;2024-03-25T01:07:01;7.60;99.90
9837;DHT22;4957;51.412;6.724;2024-03-25T01:09:28;7.50;99.90
9837;DHT22;4957;51.412;6.724;2024-03-25T01:11:55;7.50;99.90
9837;DHT22;4957;51.412;6.724;2024-03-25T01:14:21;7.50;99.90
9837;DHT22;4957;51.412;6.724;2024-03-25T01:16:46;7.40;99.90
9837;DHT22;4957;51.412;6.724;2024-03-25T01:19:13;7.40;99.90
9837;DHT22;4957;51.412;6.724;2024-03-25T01:21:38;7.40;99.90
9837;DHT22;4957;51.412;6.724;2024-03-25T01:24:04;7.40;99.90
9837;DHT22;4957;51.412;6.724;2024-03-25T01:26:30;7.40;99.90
9837;DHT22;4957;51.412;6.724;2024-03-25T01:28:56;7.40;99.90
9837;DHT22;4957;51.412;6.724;2024-03-25T01:31:21;7.30;99.90
9837;DHT22;4957;51.412;6.724;2024-03-25T01:33:47;7.30;99.90
9837;DHT22;4957;51.412;6.724;2024-03-25T01:36:13;7.30;99.90
9837;DHT22;4957;51.412;6.724;2024-03-25T01:38:43;7.30;99.90
9837;DHT22;4957;51.412;6.724;2024-03-25T01:41:10;7.30;99.90
9837;DHT22;4957;51.412;6.724;2024-03-25T01:43:36;7.20;99.90
9837;DHT22;4957;51.412;6.724;2024-03-25T01:46:03;7.20;99.90
9837;DHT22;4957;51.412;6.724;2024-03-25T01:48:28;7.20;99.90
9837;DHT22;4957;51.412;6.724;2024-03-25T01:50:55;7.20;99.90
9837;DHT22;4957;51.412;6.724;2024-03-25T01:53:23;7.20;99.90
9837;DHT22;4957;51.412;6.724;2024-03-25T01:55:49;7.10;99.90
9837;DHT22;4957;51.412;6.724;2024-03-25T01:58:19;7.10;99.90
9837;DHT22;4957;51.412;6.724;2024-03-25T02:00:45;7.10;99.90
9837;DHT22;4957;51.412;6.724;2024-03-25T02:03:11;7.10;99.90
9837;DHT22;4957;51.412;6.724;2024-03-25T02:05:37;7.00;99.90
9837;DHT22;4957;51.412;6.724;2024-03-25T02:08:03;7.00;99.90
9837;DHT22;4957;51.412;6.724;2024-03-25T02:10:30;7.00;99.90
9837;DHT22;4957;51.412;6.724;2024-03-25T02:12:56;6.90;99.90
9837;DHT22;4957;51.412;6.724;2024-03-25T02:15:22;6.90;99.90
9837;DHT22;4957;51.412;6.724;2024-03-25T02:17:48;6.90;99.90
9837;DHT22;4957;51.412;6.724;2024-03-25T02:20:14;6.90;99.90
9837;DHT22;4957;51.412;6.724;2024-03-25T02:22:41;6.90;99.90
9837;DHT22;4957;51.412;6.724;2024-03-25T02:25:09;6.80;99.90
9837;DHT22;4957;51.412;6.724;2024-03-25T02:27:38;6.80;99.90
9837;DHT22;4957;51.412;6.724;2024-03-25T02:30:08;6.80;99.90
9837;DHT22;4957;51.412;6.724;2024-03-25T02:32:35;6.80;99.90
9837;DHT22;4957;51.412;6.724;2024-03-25T02:35:04;6.80;99.90
9837;DHT22;4957;51.412;6.724;2024-03-25T02:37:30;6.70;99.90
9837;DHT22;4957;51.412;6.724;2024-03-25T02:39:58;6.70;99.90
9837;DHT22;4957;51.412;6.724;2024-03-25T02:42:28;6.70;99.90
9837;DHT22;4957;51.412;6.724;2024-03-25T02:44:57;6.60;99.90
9837;DHT22;4957;51.412;6.724;2024-03-25T02:47:24;6.60;99.90
9837;DHT22;4957;51.412;6.724;2024-03-25T02:49:50;6.60;99.90
9837;DHT22;4957;51.412;6.724;2024-03-25T02:52:17;6.60;99.90
9837;DHT22;4957;51.412;6.724;2024-03-25T02:54:43;6.60;99.90
9837;DHT22;4957;51.412;6.724;2024-03-25T02:57:09;6.50;99.90
9837;DHT22;4957;51.412;6.724;2024-03-25T02:59:35;6.60;99.90
9837;DHT22;4957;51.412;6.724;2024-03-25T03:02:01;6.50;99.90
9837;DHT22;4957;51.412;6.724;2024-03-25T03:04:27;6.50;99.90
9837;DHT22;4957;51.412;6.724;2024-03-25T03:06:53;6.50;99.90
9837;DHT22;4957;51.412;6.724;2024-03-25T03:09:18;6.50;99.90
9837;DHT22;4957;51.412;6.724;2024-03-25T03:11:44;6.50;99.90
9837;DHT22;4957;51.412;6.724;2024-03-25T03:14:10;6.40;99.90
9837;DHT22;4957;51.412;6.724;2024-03-25T03:16:35;6.50;99.90
9837;DHT22;4957;51.412;6.724;2024-03-25T03:19:01;6.40;99.90
9837;DHT22;4957;51.412;6.724;2024-03-25T03:21:27;6.40;99.90
9837;DHT22;4957;51.412;6.724;2024-03-25T03:23:53;6.40;99.90
9837;DHT22;4957;51.412;6.724;2024-03-25T03:26:19;6.50;99.90
9837;DHT22;4957;51.412;6.724;2024-03-25T03:28:45;6.50;99.90
9837;DHT22;4957;51.412;6.724;2024-03-25T03:31:10;6.40;99.90
9837;DHT22;4957;51.412;6.724;2024-03-25T03:33:36;6.40;99.90
9837;DHT22;4957;51.412;6.724;2024-03-25T03:36:02;6.50;99.90
9837;DHT22;4957;51.412;6.724;2024-03-25T03:38:28;6.50;99.90
9837;DHT22;4957;51.412;6.724;2024-03-25T03:41:01;6.50;99.90
9837;DHT22;4957;51.412;6.724;2024-03-25T03:43:27;6.50;99.90
9837;DHT22;4957;51.412;6.724;2024-03-25T03:45:53;6.50;99.90
9837;DHT22;4957;51.412;6.724;2024-03-25T03:48:19;6.50;99.90
9837;DHT22;4957;51.412;6.724;2024-03-25T03:50:45;6.50;99.90
9837;DHT22;4957;51.412;6.724;2024-03-25T03:53:11;6.50;99.90
9837;DHT22;4957;51.412;6.724;2024-03-25T03:55:37;6.50;99.90
9837;DHT22;4957;51.412;6.724;2024-03-25T03:58:04;6.50;99.90
9837;DHT22;4957;51.412;6.724;2024-03-25T04:00:33;6.50;99.90
9837;DHT22;4957;51.412;6.724;2024-03-25T04:02:59;6.50;99.90
9837;DHT22;4957;51.412;6.724;2024-03-25T04:05:29;6.50;99.90
9837;DHT22;4957;51.412;6.724;2024-03-25T04:07:55;6.50;99.90
9837;DHT22;4957;51.412;6.724;2024-03-25T04:10:21;6.50;99.90
9837;DHT22;4957;51.412;6.724;2024-03-25T04:12:46;6.50;99.90
9837;DHT22;4957;51.412;6.724;2024-03-25T04:15:12;6.50;99.90
9837;DHT22;4957;51.412;6.724;2024-03-25T04:17:46;6.50;99.90
9837;DHT22;4957;51.412;6.724;2024-03-25T04:20:12;6.50;99.90
9837;DHT22;4957;51.412;6.724;2024-03-25T04:22:42;6.50;99.90
9837;DHT22;4957;51.412;6.724;2024-03-25T04:25:09;6.50;99.90
9837;DHT22;4957;51.412;6.724;2024-03-25T04:27:41;6.50;99.90
9837;DHT22;4957;51.412;6.724;2024-03-25T04:30:07;6.50;99.90
9837;DHT22;4957;51.412;6.724;2024-03-25T04:32:34;6.50;99.90
9837;DHT22;4957;51.412;6.724;2024-03-25T04:35:01;6.50;99.90
9837;DHT22;4957;51.412;6.724;2024-03-25T04:37:27;6.60;99.90
9837;DHT22;4957;51.412;6.724;2024-03-25T04:39:54;6.60;99.90
9837;DHT22;4957;51.412;6.724;2024-03-25T04:42:20;6.50;99.90
9837;DHT22;4957;51.412;6.724;2024-03-25T04:44:46;6.50;99.90
9837;DHT22;4957;51.412;6.724;2024-03-25T04:47:12;6.60;99.90
9837;DHT22;4957;51.412;6.724;2024-03-25T04:49:38;6.50;99.90
9837;DHT22;4957;51.412;6.724;2024-03-25T04:52:04;6.50;99.90
9837;DHT22;4957;51.412;6.724;2024-03-25T04:54:30;6.50;99.90
9837;DHT22;4957;51.412;6.724;2024-03-25T04:56:55;6.50;99.90
9837;DHT22;4957;51.412;6.724;2024-03-25T04:59:22;6.50;99.90
9837;DHT22;4957;51.412;6.724;2024-03-25T05:01:47;6.50;99.90
9837;DHT22;4957;51.412;6.724;2024-03-25T05:04:13;6.50;99.90
9837;DHT22;4957;51.412;6.724;2024-03-25T05:06:39;6.50;99.90
9837;DHT22;4957;51.412;6.724;2024-03-25T05:09:04;6.50;99.90
9837;DHT22;4957;51.412;6.724;2024-03-25T05:11:33;6.50;99.90
9837;DHT22;4957;51.412;6.724;2024-03-25T05:13:59;6.50;99.90
9837;DHT22;4957;51.412;6.724;2024-03-25T05:16:24;6.50;99.90
9837;DHT22;4957;51.412;6.724;2024-03-25T05:18:50;6.50;99.90
9837;DHT22;4957;51.412;6.724;2024-03-25T05:21:16;6.50;99.90
9837;DHT22;4957;51.412;6.724;2024-03-25T05:23:42;6.50;99.90
9837;DHT22;4957;51.412;6.724;2024-03-25T05:26:08;6.50;99.90
9837;DHT22;4957;51.412;6.724;2024-03-25T05:28:33;6.50;99.90
9837;DHT22;4957;51.412;6.724;2024-03-25T05:31:08;6.50;99.90
9837;DHT22;4957;51.412;6.724;2024-03-25T05:33:34;6.50;99.90
9837;DHT22;4957;51.412;6.724;2024-03-25T05:36:00;6.50;99.90
9837;DHT22;4957;51.412;6.724;2024-03-25T05:38:27;6.50;99.90
9837;DHT22;4957;51.412;6.724;2024-03-25T05:40:53;6.50;99.90
9837;DHT22;4957;51.412;6.724;2024-03-25T05:43:19;6.60;99.90
9837;DHT22;4957;51.412;6.724;2024-03-25T05:45:55;6.60;99.90
9837;DHT22;4957;51.412;6.724;2024-03-25T05:48:22;6.60;99.90
9837;DHT22;4957;51.412;6.724;2024-03-25T05:51:04;6.60;99.90
9837;DHT22;4957;51.412;6.724;2024-03-25T05:53:31;6.60;99.90
9837;DHT22;4957;51.412;6.724;2024-03-25T05:55:56;6.60;99.90
9837;DHT22;4957;51.412;6.724;2024-03-25T05:58:25;6.60;99.90
9837;DHT22;4957;51.412;6.724;2024-03-25T06:00:51;6.70;99.90
9837;DHT22;4957;51.412;6.724;2024-03-25T06:03:18;6.60;99.90
9837;DHT22;4957;51.412;6.724;2024-03-25T06:05:44;6.70;99.90
9837;DHT22;4957;51.412;6.724;2024-03-25T06:08:10;6.70;99.90
9837;DHT22;4957;51.412;6.724;2024-03-25T06:10:44;6.70;99.90
9837;DHT22;4957;51.412;6.724;2024-03-25T06:13:10;6.70;99.90
9837;DHT22;4957;51.412;6.724;2024-03-25T06:15:35;6.70;99.90
9837;DHT22;4957;51.412;6.724;2024-03-25T06:18:01;6.70;99.90
9837;DHT22;4957;51.412;6.724;2024-03-25T06:20:27;6.80;99.90
9837;DHT22;4957;51.412;6.724;2024-03-25T06:22:52;6.80;99.90
9837;DHT22;4957;51.412;6.724;2024-03-25T06:25:18;6.80;99.90
9837;DHT22;4957;51.412;6.724;2024-03-25T06:27:44;6.80;99.90
9837;DHT22;4957;51.412;6.724;2024-03-25T06:30:10;6.80;99.90
9837;DHT22;4957;51.412;6.724;2024-03-25T06:32:55;6.90;99.90
9837;DHT22;4957;51.412;6.724;2024-03-25T06:35:42;6.90;99.90
9837;DHT22;4957;51.412;6.724;2024-03-25T06:38:09;6.90;99.90
9837;DHT22;4957;51.412;6.724;2024-03-25T06:40:35;6.90;99.90
9837;DHT22;4957;51.412;6.724;2024-03-25T06:43:01;6.90;99.90
9837;DHT22;4957;51.412;6.724;2024-03-25T06:45:26;6.90;99.90
9837;DHT22;4957;51.412;6.724;2024-03-25T06:47:52;6.90;99.90
9837;DHT22;4957;51.412;6.724;2024-03-25T06:50:18;6.90;99.90
9837;DHT22;4957;51.412;6.724;2024-03-25T06:52:43;7.00;99.90
9837;DHT22;4957;51.412;6.724;2024-03-25T06:55:09;7.00;99.90
9837;DHT22;4957;51.412;6.724;2024-03-25T06:57:35;7.10;99.90
9837;DHT22;4957;51.412;6.724;2024-03-25T07:00:01;7.10;99.90
9837;DHT22;4957;51.412;6.724;2024-03-25T07:02:26;7.20;99.90
9837;DHT22;4957;51.412;6.724;2024-03-25T07:04:52;7.20;99.90
9837;DHT22;4957;51.412;6.724;2024-03-25T07:07:18;7.30;99.90
9837;DHT22;4957;51.412;6.724;2024-03-25T07:09:44;7.30;99.90
9837;DHT22;4957;51.412;6.724;2024-03-25T07:12:09;7.40;99.90
9837;DHT22;4957;51.412;6.724;2024-03-25T07:14:35;7.40;99.90
9837;DHT22;4957;51.412;6.724;2024-03-25T07:17:01;7.50;99.90
9837;DHT22;4957;51.412;6.724;2024-03-25T07:19:26;7.60;99.90
9837;DHT22;4957;51.412;6.724;2024-03-25T07:21:52;7.70;99.90
9837;DHT22;4957;51.412;6.724;2024-03-25T07:24:18;7.80;99.90
9837;DHT22;4957;51.412;6.724;2024-03-25T07:26:44;7.90;99.90
9837;DHT22;4957;51.412;6.724;2024-03-25T07:29:10;7.90;99.90
9837;DHT22;4957;51.412;6.724;2024-03-25T07:31:36;8.00;99.90
9837;DHT22;4957;51.412;6.724;2024-03-25T07:34:01;8.10;99.90
9837;DHT22;4957;51.412;6.724;2024-03-25T07:36:27;8.10;99.90
9837;DHT22;4957;51.412;6.724;2024-03-25T07:38:58;8.20;99.90
9837;DHT22;4957;51.412;6.724;2024-03-25T07:41:24;8.30;99.90
9837;DHT22;4957;51.412;6.724;2024-03-25T07:43:49;8.30;99.90
9837;DHT22;4957;51.412;6.724;2024-03-25T07:46:15;8.40;99.90
9837;DHT22;4957;51.412;6.724;2024-03-25T07:48:41;8.50;99.90
9837;DHT22;4957;51.412;6.724;2024-03-25T07:51:07;8.50;99.90
9837;DHT22;4957;51.412;6.724;2024-03-25T07:53:33;8.60;99.90
9837;DHT22;4957;51.412;6.724;2024-03-25T07:55:59;8.60;99.90
9837;DHT22;4957;51.412;6.724;2024-03-25T07:58:25;8.70;99.90
9837;DHT22;4957;51.412;6.724;2024-03-25T08:00:51;8.80;99.90
9837;DHT22;4957;51.412;6.724;2024-03-25T08:03:17;8.80;99.90
9837;DHT22;4957;51.412;6.724;2024-03-25T08:05:42;8.90;99.90
9837;DHT22;4957;51.412;6.724;2024-03-25T08:08:08;8.90;99.90
9837;DHT22;4957;51.412;6.724;2024-03-25T08:10:34;9.00;99.90
9837;DHT22;4957;51.412;6.724;2024-03-25T08:13:00;9.10;99.90
9837;DHT22;4957;51.412;6.724;2024-03-25T08:15:25;9.20;99.90
9837;DHT22;4957;51.412;6.724;2024-03-25T08:17:52;9.30;99.90
9837;DHT22;4957;51.412;6.724;2024-03-25T08:20:18;9.40;99.90
9837;DHT22;4957;51.412;6.724;2024-03-25T08:22:44;9.50;99.90
9837;DHT22;4957;51.412;6.724;2024-03-25T08:25:11;9.60;99.90
9837;DHT22;4957;51.412;6.724;2024-03-25T08:27:37;9.80;99.90
9837;DHT22;4957;51.412;6.724;2024-03-25T08:30:03;9.90;99.90
9837;DHT22;4957;51.412;6.724;2024-03-25T08:32:29;10.00;99.90
9837;DHT22;4957;51.412;6.724;2024-03-25T08:34:55;10.20;99.90
9837;DHT22;4957;51.412;6.724;2024-03-25T08:37:21;10.30;99.90
9837;DHT22;4957;51.412;6.724;2024-03-25T08:39:46;10.40;99.90
9837;DHT22;4957;51.412;6.724;2024-03-25T08:42:12;10.60;99.90
9837;DHT22;4957;51.412;6.724;2024-03-25T08:44:38;10.70;99.90
9837;DHT22;4957;51.412;6.724;2024-03-25T08:47:04;10.90;99.90
9837;DHT22;4957;51.412;6.724;2024-03-25T08:49:29;11.00;99.90
9837;DHT22;4957;51.412;6.724;2024-03-25T08:51:55;11.20;99.90
9837;DHT22;4957;51.412;6.724;2024-03-25T08:54:21;11.30;99.90
9837;DHT22;4957;51.412;6.724;2024-03-25T08:56:47;11.40;99.90
9837;DHT22;4957;51.412;6.724;2024-03-25T08:59:12;11.50;99.90
9837;DHT22;4957;51.412;6.724;2024-03-25T09:01:38;11.60;99.90
9837;DHT22;4957;51.412;6.724;2024-03-25T09:04:04;11.70;99.90
9837;DHT22;4957;51.412;6.724;2024-03-25T09:06:29;11.80;99.90
9837;DHT22;4957;51.412;6.724;2024-03-25T09:08:55;11.90;99.90
9837;DHT22;4957;51.412;6.724;2024-03-25T09:11:39;12.00;99.90
9837;DHT22;4957;51.412;6.724;2024-03-25T09:14:05;12.10;99.90
9837;DHT22;4957;51.412;6.724;2024-03-25T09:16:31;12.20;99.90
9837;DHT22;4957;51.412;6.724;2024-03-25T09:18:58;12.30;99.90
9837;DHT22;4957;51.412;6.724;2024-03-25T09:21:23;12.30;99.90
9837;DHT22;4957;51.412;6.724;2024-03-25T09:23:50;12.50;99.90
9837;DHT22;4957;51.412;6.724;2024-03-25T09:26:16;12.60;99.90
9837;DHT22;4957;51.412;6.724;2024-03-25T09:28:41;12.70;99.90
9837;DHT22;4957;51.412;6.724;2024-03-25T09:31:07;12.90;99.90
9837;DHT22;4957;51.412;6.724;2024-03-25T09:33:33;13.10;99.90
9837;DHT22;4957;51.412;6.724;2024-03-25T09:35:58;13.20;99.90
9837;DHT22;4957;51.412;6.724;2024-03-25T09:38:25;13.40;99.90
9837;DHT22;4957;51.412;6.724;2024-03-25T09:40:53;13.60;99.90
9837;DHT22;4957;51.412;6.724;2024-03-25T09:43:32;13.80;99.90
9837;DHT22;4957;51.412;6.724;2024-03-25T09:45:59;14.00;99.90
9837;DHT22;4957;51.412;6.724;2024-03-25T09:48:25;14.10;99.90
9837;DHT22;4957;51.412;6.724;2024-03-25T09:50:52;14.20;99.90
9837;DHT22;4957;51.412;6.724;2024-03-25T09:53:18;14.40;99.90
9837;DHT22;4957;51.412;6.724;2024-03-25T09:55:46;14.50;99.90
9837;DHT22;4957;51.412;6.724;2024-03-25T09:58:14;14.60;99.90
9837;DHT22;4957;51.412;6.724;2024-03-25T10:00:40;14.60;99.90
9837;DHT22;4957;51.412;6.724;2024-03-25T10:03:06;14.80;99.90
9837;DHT22;4957;51.412;6.724;2024-03-25T10:05:32;14.80;99.90
9837;DHT22;4957;51.412;6.724;2024-03-25T10:07:58;14.80;99.90
9837;DHT22;4957;51.412;6.724;2024-03-25T10:10:24;14.80;99.90
9837;DHT22;4957;51.412;6.724;2024-03-25T10:12:50;14.80;99.90
9837;DHT22;4957;51.412;6.724;2024-03-25T10:15:17;14.80;99.90
9837;DHT22;4957;51.412;6.724;2024-03-25T10:17:43;14.80;99.90
9837;DHT22;4957;51.412;6.724;2024-03-25T10:20:18;14.80;99.90
9837;DHT22;4957;51.412;6.724;2024-03-25T10:22:45;14.80;99.90
9837;DHT22;4957;51.412;6.724;2024-03-25T10:27:57;14.80;99.90
9837;DHT22;4957;51.412;6.724;2024-03-25T10:30:23;14.80;99.90
9837;DHT22;4957;51.412;6.724;2024-03-25T10:33:02;14.90;99.90
9837;DHT22;4957;51.412;6.724;2024-03-25T10:35:31;14.90;99.90
9837;DHT22;4957;51.412;6.724;2024-03-25T10:38:03;14.90;99.90
9837;DHT22;4957;51.412;6.724;2024-03-25T10:40:31;14.90;99.90
9837;DHT22;4957;51.412;6.724;2024-03-25T10:43:08;14.90;99.90
9837;DHT22;4957;51.412;6.724;2024-03-25T10:45:37;15.00;99.90
9837;DHT22;4957;51.412;6.724;2024-03-25T10:48:29;15.00;99.90
9837;DHT22;4957;51.412;6.724;2024-03-25T10:50:56;15.00;99.90
9837;DHT22;4957;51.412;6.724;2024-03-25T10:53:25;15.00;99.90
9837;DHT22;4957;51.412;6.724;2024-03-25T10:55:54;15.10;99.90
9837;DHT22;4957;51.412;6.724;2024-03-25T10:58:23;15.20;99.90
9837;DHT22;4957;51.412;6.724;2024-03-25T11:00:52;15.30;99.90
9837;DHT22;4957;51.412;6.724;2024-03-25T11:03:18;15.40;99.90
9837;DHT22;4957;51.412;6.724;2024-03-25T11:05:47;15.50;99.90
9837;DHT22;4957;51.412;6.724;2024-03-25T11:08:14;15.60;99.90
9837;DHT22;4957;51.412;6.724;2024-03-25T11:10:45;15.70;99.90
9837;DHT22;4957;51.412;6.724;2024-03-25T11:13:17;15.70;99.90
9837;DHT22;4957;51.412;6.724;2024-03-25T11:15:48;15.80;99.90
9837;DHT22;4957;51.412;6.724;2024-03-25T11:18:21;15.80;99.90
9837;DHT22;4957;51.412;6.724;2024-03-25T11:21:01;15.90;99.90
9837;DHT22;4957;51.412;6.724;2024-03-25T11:23:36;15.90;99.90
9837;DHT22;4957;51.412;6.724;2024-03-25T11:26:02;15.90;99.90
9837;DHT22;4957;51.412;6.724;2024-03-25T11:28:28;15.90;99.90
9837;DHT22;4957;51.412;6.724;2024-03-25T11:30:55;16.00;99.90
9837;DHT22;4957;51.412;6.724;2024-03-25T11:33:21;16.00;99.90
9837;DHT22;4957;51.412;6.724;2024-03-25T11:35:50;16.00;99.90
9837;DHT22;4957;51.412;6.724;2024-03-25T11:38:16;16.00;99.90
9837;DHT22;4957;51.412;6.724;2024-03-25T11:40:43;16.00;99.90
9837;DHT22;4957;51.412;6.724;2024-03-25T11:43:17;16.10;99.90
9837;DHT22;4957;51.412;6.724;2024-03-25T11:45:42;16.00;99.90
9837;DHT22;4957;51.412;6.724;2024-03-25T11:48:09;16.10;99.90
9837;DHT22;4957;51.412;6.724;2024-03-25T11:50:35;16.10;99.90
9837;DHT22;4957;51.412;6.724;2024-03-25T11:53:04;16.10;99.90
9837;DHT22;4957;51.412;6.724;2024-03-25T11:55:30;16.10;99.90
9837;DHT22;4957;51.412;6.724;2024-03-25T11:57:56;16.10;99.90
9837;DHT22;4957;51.412;6.724;2024-03-25T12:00:23;16.10;99.90
9837;DHT22;4957;51.412;6.724;2024-03-25T12:02:49;16.10;99.90
9837;DHT22;4957;51.412;6.724;2024-03-25T12:05:15;16.10;99.90
9837;DHT22;4957;51.412;6.724;2024-03-25T12:07:40;16.10;99.90
9837;DHT22;4957;51.412;6.724;2024-03-25T12:10:06;16.10;99.90
9837;DHT22;4957;51.412;6.724;2024-03-25T12:12:51;16.10;99.90
9837;DHT22;4957;51.412;6.724;2024-03-25T12:15:17;16.10;99.90
9837;DHT22;4957;51.412;6.724;2024-03-25T12:17:43;16.00;99.90
9837;DHT22;4957;51.412;6.724;2024-03-25T12:20:09;16.00;99.90
9837;DHT22;4957;51.412;6.724;2024-03-25T12:22:36;16.00;99.90
9837;DHT22;4957;51.412;6.724;2024-03-25T12:25:04;16.00;99.70
9837;DHT22;4957;51.412;6.724;2024-03-25T12:27:32;16.00;99.40
9837;DHT22;4957;51.412;6.724;2024-03-25T12:30:04;16.00;99.00
9837;DHT22;4957;51.412;6.724;2024-03-25T12:32:42;16.00;98.50
9837;DHT22;4957;51.412;6.724;2024-03-25T12:35:12;16.00;97.90
9837;DHT22;4957;51.412;6.724;2024-03-25T12:37:40;16.00;97.60
9837;DHT22;4957;51.412;6.724;2024-03-25T12:40:07;16.00;97.60
9837;DHT22;4957;51.412;6.724;2024-03-25T12:42:34;15.90;97.50
9837;DHT22;4957;51.412;6.724;2024-03-25T12:45:00;15.90;97.60
9837;DHT22;4957;51.412;6.724;2024-03-25T12:47:25;15.90;98.00
9837;DHT22;4957;51.412;6.724;2024-03-25T12:49:51;15.80;97.90
9837;DHT22;4957;51.412;6.724;2024-03-25T12:52:17;15.80;97.50
9837;DHT22;4957;51.412;6.724;2024-03-25T12:54:43;15.80;97.70
9837;DHT22;4957;51.412;6.724;2024-03-25T12:57:08;15.80;97.80
9837;DHT22;4957;51.412;6.724;2024-03-25T12:59:35;15.70;97.60
9837;DHT22;4957;51.412;6.724;2024-03-25T13:02:01;15.80;97.50
9837;DHT22;4957;51.412;6.724;2024-03-25T13:04:26;15.80;97.50
9837;DHT22;4957;51.412;6.724;2024-03-25T13:06:52;15.80;97.50
9837;DHT22;4957;51.412;6.724;2024-03-25T13:09:18;15.90;96.70
9837;DHT22;4957;51.412;6.724;2024-03-25T13:11:43;16.00;96.10
9837;DHT22;4957;51.412;6.724;2024-03-25T13:14:12;16.10;96.30
9837;DHT22;4957;51.412;6.724;2024-03-25T13:16:38;16.10;95.80
9837;DHT22;4957;51.412;6.724;2024-03-25T13:19:04;16.10;95.40
9837;DHT22;4957;51.412;6.724;2024-03-25T13:21:30;16.10;95.80
9837;DHT22;4957;51.412;6.724;2024-03-25T13:23:56;16.20;95.90
9837;DHT22;4957;51.412;6.724;2024-03-25T13:26:22;16.10;95.60
9837;DHT22;4957;51.412;6.724;2024-03-25T13:28:47;16.10;95.40
9837;DHT22;4957;51.412;6.724;2024-03-25T13:31:13;16.10;95.60
9837;DHT22;4957;51.412;6.724;2024-03-25T13:33:39;16.10;95.20
9837;DHT22;4957;51.412;6.724;2024-03-25T13:36:06;16.20;94.60
9837;DHT22;4957;51.412;6.724;2024-03-25T13:38:32;16.20;94.80
9837;DHT22;4957;51.412;6.724;2024-03-25T13:41:00;16.20;94.80
9837;DHT22;4957;51.412;6.724;2024-03-25T13:43:26;16.30;94.20
9837;DHT22;4957;51.412;6.724;2024-03-25T13:45:52;16.30;94.10
9837;DHT22;4957;51.412;6.724;2024-03-25T13:48:18;16.40;93.60
9837;DHT22;4957;51.412;6.724;2024-03-25T13:50:43;16.40;94.10
9837;DHT22;4957;51.412;6.724;2024-03-25T13:53:09;16.40;94.70
9837;DHT22;4957;51.412;6.724;2024-03-25T13:55:35;16.50;94.30
9837;DHT22;4957;51.412;6.724;2024-03-25T13:58:01;16.50;94.00
9837;DHT22;4957;51.412;6.724;2024-03-25T14:00:27;16.50;93.50
9837;DHT22;4957;51.412;6.724;2024-03-25T14:02:54;16.60;92.90
9837;DHT22;4957;51.412;6.724;2024-03-25T14:05:21;16.60;93.30
9837;DHT22;4957;51.412;6.724;2024-03-25T14:07:49;16.60;92.50
9837;DHT22;4957;51.412;6.724;2024-03-25T14:10:15;16.60;92.90
9837;DHT22;4957;51.412;6.724;2024-03-25T14:12:41;16.60;92.50
9837;DHT22;4957;51.412;6.724;2024-03-25T14:15:07;16.60;92.90
9837;DHT22;4957;51.412;6.724;2024-03-25T14:17:33;16.60;92.90
9837;DHT22;4957;51.412;6.724;2024-03-25T14:19:59;16.60;93.30
9837;DHT22;4957;51.412;6.724;2024-03-25T14:22:25;16.60;92.60
9837;DHT22;4957;51.412;6.724;2024-03-25T14:24:51;16.60;92.50
9837;DHT22;4957;51.412;6.724;2024-03-25T14:27:22;16.60;92.20
9837;DHT22;4957;51.412;6.724;2024-03-25T14:29:48;16.60;92.60
9837;DHT22;4957;51.412;6.724;2024-03-25T14:32:13;16.50;92.20
9837;DHT22;4957;51.412;6.724;2024-03-25T14:34:39;16.50;91.80
9837;DHT22;4957;51.412;6.724;2024-03-25T14:37:05;16.50;91.60
9837;DHT22;4957;51.412;6.724;2024-03-25T14:39:31;16.50;91.90
9837;DHT22;4957;51.412;6.724;2024-03-25T14:41:57;16.50;91.30
9837;DHT22;4957;51.412;6.724;2024-03-25T14:44:22;16.50;91.10
9837;DHT22;4957;51.412;6.724;2024-03-25T14:46:48;16.50;90.90
9837;DHT22;4957;51.412;6.724;2024-03-25T14:49:14;16.40;91.00
9837;DHT22;4957;51.412;6.724;2024-03-25T14:51:39;16.40;90.80
9837;DHT22;4957;51.412;6.724;2024-03-25T14:54:06;16.40;90.50
9837;DHT22;4957;51.412;6.724;2024-03-25T14:56:32;16.40;90.20
9837;DHT22;4957;51.412;6.724;2024-03-25T14:58:58;16.30;90.10
9837;DHT22;4957;51.412;6.724;2024-03-25T15:01:24;16.30;89.90
9837;DHT22;4957;51.412;6.724;2024-03-25T15:03:50;16.30;90.00
9837;DHT22;4957;51.412;6.724;2024-03-25T15:06:16;16.30;90.10
9837;DHT22;4957;51.412;6.724;2024-03-25T15:08:41;16.30;89.00
9837;DHT22;4957;51.412;6.724;2024-03-25T15:11:09;16.20;88.70
9837;DHT22;4957;51.412;6.724;2024-03-25T15:13:35;16.20;88.40
9837;DHT22;4957;51.412;6.724;2024-03-25T15:16:04;16.20;88.70
9837;DHT22;4957;51.412;6.724;2024-03-25T15:18:30;16.10;87.20
9837;DHT22;4957;51.412;6.724;2024-03-25T15:21:02;16.10;87.20
9837;DHT22;4957;51.412;6.724;2024-03-25T15:23:29;16.10;86.60
9837;DHT22;4957;51.412;6.724;2024-03-25T15:25:54;16.10;87.00
9837;DHT22;4957;51.412;6.724;2024-03-25T15:28:21;16.10;86.30
9837;DHT22;4957;51.412;6.724;2024-03-25T15:30:47;16.00;86.10
9837;DHT22;4957;51.412;6.724;2024-03-25T15:33:13;16.00;85.00
9837;DHT22;4957;51.412;6.724;2024-03-25T15:35:39;15.90;85.30
9837;DHT22;4957;51.412;6.724;2024-03-25T15:38:05;15.90;86.00
9837;DHT22;4957;51.412;6.724;2024-03-25T15:40:31;15.90;85.20
9837;DHT22;4957;51.412;6.724;2024-03-25T15:42:57;15.80;85.40
9837;DHT22;4957;51.412;6.724;2024-03-25T15:45:25;15.80;83.80
9837;DHT22;4957;51.412;6.724;2024-03-25T15:47:51;15.70;84.30
9837;DHT22;4957;51.412;6.724;2024-03-25T15:50:17;15.70;85.60
9837;DHT22;4957;51.412;6.724;2024-03-25T15:52:42;15.60;85.20
9837;DHT22;4957;51.412;6.724;2024-03-25T15:55:08;15.60;85.10
9837;DHT22;4957;51.412;6.724;2024-03-25T15:57:34;15.60;85.20
9837;DHT22;4957;51.412;6.724;2024-03-25T16:00:00;15.50;84.80
9837;DHT22;4957;51.412;6.724;2024-03-25T16:02:26;15.50;85.00
9837;DHT22;4957;51.412;6.724;2024-03-25T16:04:51;15.40;84.10
9837;DHT22;4957;51.412;6.724;2024-03-25T16:07:17;15.40;84.70
9837;DHT22;4957;51.412;6.724;2024-03-25T16:09:43;15.30;83.00